Time;durP1;ratioP1;P1;durP2;ratioP2;P2;SDS_P1;SDS_P2;PMS_P1;PMS_P2;Temp;Humidity;BMP_temperature;BMP_pressure;BME280_temperature;BME280_humidity;BME280_pressure;Samples;Min_cycle;Max_cycle;Signal;HPM_P1;HPM_P2
2021/12/31 00:00:29;;;;;;;9.23;1.95;;;12.60;99.90;;;;;;5064319;28;20472;-66
2021/12/31 00:02:55;;;;;;;12.45;2.10;;;12.60;99.90;;;;;;5065017;28;20044;-66
2021/12/31 00:05:21;;;;;;;8.60;1.60;;;12.60;99.90;;;;;;5068694;28;20051;-66
2021/12/31 00:07:47;;;;;;;13.77;2.15;;;12.60;99.90;;;;;;5063715;28;20320;-66
2021/12/31 00:10:13;;;;;;;12.48;2.05;;;12.60;99.90;;;;;;5063995;28;20144;-66
2021/12/31 00:12:43;;;;;;;12.80;2.53;;;12.60;99.90;;;;;;5068015;28;20037;-66
2021/12/31 00:15:10;;;;;;;10.63;2.35;;;12.70;99.90;;;;;;5062553;28;20033;-66
2021/12/31 00:17:36;;;;;;;9.02;1.95;;;12.70;99.90;;;;;;5061235;28;20040;-66
2021/12/31 00:20:11;;;;;;;13.82;2.53;;;12.70;99.90;;;;;;5062366;28;20044;-66
2021/12/31 00:25:06;;;;;;;12.23;2.25;;;12.70;99.90;;;;;;5061614;28;20044;-66
2021/12/31 00:27:31;;;;;;;13.35;2.30;;;12.60;99.90;;;;;;5063423;28;20043;-66
2021/12/31 00:29:57;;;;;;;14.35;2.88;;;12.60;99.90;;;;;;5064817;28;20494;-66
2021/12/31 00:32:23;;;;;;;12.02;2.40;;;12.60;99.90;;;;;;5062145;28;20406;-66
2021/12/31 00:34:48;;;;;;;11.27;2.50;;;12.70;99.90;;;;;;5063730;28;20050;-66
2021/12/31 00:37:29;;;;;;;10.50;2.08;;;12.70;99.90;;;;;;5066478;28;20078;-66
2021/12/31 00:39:55;;;;;;;12.18;2.05;;;12.70;99.90;;;;;;5059552;28;20502;-66
2021/12/31 00:42:21;;;;;;;8.98;1.83;;;12.80;99.90;;;;;;5063133;28;20028;-66
2021/12/31 00:44:46;;;;;;;10.25;2.50;;;12.70;99.90;;;;;;5063831;28;20036;-66
2021/12/31 00:47:12;;;;;;;10.13;1.85;;;12.70;99.90;;;;;;5061577;28;20044;-66
2021/12/31 00:49:38;;;;;;;10.45;2.20;;;12.70;99.90;;;;;;5065352;28;20079;-66
2021/12/31 00:52:04;;;;;;;10.45;2.17;;;12.70;99.90;;;;;;5063549;28;20098;-66
2021/12/31 00:54:29;;;;;;;9.55;2.13;;;12.70;99.90;;;;;;5062291;28;20037;-66
2021/12/31 00:57:02;;;;;;;12.50;2.63;;;12.70;99.90;;;;;;5060175;28;20057;-66
2021/12/31 00:59:28;;;;;;;10.57;2.38;;;12.70;99.90;;;;;;5063396;28;20063;-66
2021/12/31 01:01:53;;;;;;;13.27;2.65;;;12.70;99.90;;;;;;5063034;28;20040;-66
2021/12/31 01:04:21;;;;;;;12.68;2.47;;;12.70;99.90;;;;;;5063011;28;20500;-66
2021/12/31 01:06:48;;;;;;;14.63;2.42;;;12.70;99.90;;;;;;5059686;28;20040;-66
2021/12/31 01:09:14;;;;;;;11.45;2.03;;;12.70;99.90;;;;;;5061283;28;21998;-66
2021/12/31 01:11:42;;;;;;;9.40;2.17;;;12.70;99.90;;;;;;5060934;28;20071;-66
2021/12/31 01:14:19;;;;;;;8.90;2.28;;;12.70;99.90;;;;;;5068361;28;20100;-66
2021/12/31 01:16:49;;;;;;;11.88;2.55;;;12.70;99.90;;;;;;5047126;28;20132;-66
2021/12/31 01:21:41;;;;;;;9.63;2.40;;;12.70;99.90;;;;;;5056194;28;20622;-66
2021/12/31 01:24:07;;;;;;;13.93;2.40;;;12.70;99.90;;;;;;5059333;28;20101;-67
2021/12/31 01:26:33;;;;;;;14.55;2.78;;;12.70;99.90;;;;;;5055799;28;20121;-67
2021/12/31 01:28:59;;;;;;;14.43;2.60;;;12.70;99.90;;;;;;5062576;28;20090;-66
2021/12/31 01:31:25;;;;;;;11.85;2.50;;;12.70;99.90;;;;;;5065345;28;20041;-66
2021/12/31 01:33:52;;;;;;;12.30;2.38;;;12.70;99.90;;;;;;5064139;28;20075;-66
2021/12/31 01:36:17;;;;;;;12.38;2.63;;;12.70;99.90;;;;;;5064776;28;20037;-66
2021/12/31 01:38:45;;;;;;;13.38;2.08;;;12.70;99.90;;;;;;5075301;28;20052;-66
2021/12/31 01:41:11;;;;;;;12.38;2.33;;;12.70;99.90;;;;;;5066485;28;20041;-66
2021/12/31 01:43:37;;;;;;;11.50;2.60;;;12.70;99.90;;;;;;5065802;28;20029;-67
2021/12/31 01:46:11;;;;;;;13.05;2.30;;;12.70;99.90;;;;;;5066744;28;20119;-66
2021/12/31 01:48:49;;;;;;;8.70;2.05;;;12.80;99.90;;;;;;5067263;28;20049;-67
2021/12/31 01:51:15;;;;;;;9.10;2.33;;;12.80;99.90;;;;;;5065840;28;20618;-67
2021/12/31 01:53:41;;;;;;;9.18;2.10;;;12.80;99.90;;;;;;5065570;28;20044;-67
2021/12/31 01:56:07;;;;;;;10.73;2.15;;;12.80;99.90;;;;;;5067451;28;20037;-66
2021/12/31 01:58:34;;;;;;;13.52;2.30;;;12.80;99.90;;;;;;5062414;28;20468;-66
2021/12/31 02:01:03;;;;;;;10.95;1.95;;;12.80;99.90;;;;;;5068131;28;20100;-66
2021/12/31 02:03:31;;;;;;;9.93;2.15;;;12.80;99.90;;;;;;5064792;28;20106;-67
2021/12/31 02:05:57;;;;;;;12.13;3.13;;;12.80;99.90;;;;;;5063552;28;20083;-67
2021/12/31 02:08:23;;;;;;;7.72;1.77;;;12.80;99.90;;;;;;5066056;28;20577;-67
2021/12/31 02:10:50;;;;;;;13.02;2.53;;;12.80;99.90;;;;;;5064633;28;20048;-67
2021/12/31 02:13:17;;;;;;;9.95;2.60;;;12.80;99.90;;;;;;5071373;28;20064;-67
2021/12/31 02:15:44;;;;;;;9.52;1.83;;;12.80;99.90;;;;;;5062614;28;20036;-67
2021/12/31 02:18:10;;;;;;;9.52;2.13;;;12.80;99.90;;;;;;5067250;28;20087;-66
2021/12/31 02:20:41;;;;;;;13.73;2.03;;;12.80;99.90;;;;;;5062785;28;20052;-66
2021/12/31 02:23:14;;;;;;;7.53;2.08;;;12.90;99.90;;;;;;5061992;28;20055;-66
2021/12/31 02:25:40;;;;;;;9.70;2.30;;;12.90;99.90;;;;;;5066563;28;20042;-66
2021/12/31 02:28:06;;;;;;;8.50;2.45;;;12.80;99.90;;;;;;5064891;28;20028;-66
2021/12/31 02:30:32;;;;;;;9.07;2.22;;;12.80;99.90;;;;;;5065339;28;20036;-66
2021/12/31 02:32:59;;;;;;;8.20;2.38;;;12.90;99.90;;;;;;5065502;28;20040;-67
2021/12/31 02:35:25;;;;;;;10.60;2.03;;;12.90;99.90;;;;;;5062430;28;20064;-66
2021/12/31 02:37:51;;;;;;;10.38;2.20;;;12.90;99.90;;;;;;5063176;28;20361;-66
2021/12/31 02:40:19;;;;;;;9.15;2.30;;;12.90;99.90;;;;;;5065636;28;20469;-66
2021/12/31 02:42:45;;;;;;;11.00;2.80;;;12.90;99.90;;;;;;5066511;28;20032;-66
2021/12/31 02:45:12;;;;;;;7.45;1.95;;;12.90;99.90;;;;;;5063810;28;20468;-66
2021/12/31 02:47:44;;;;;;;8.48;2.50;;;12.90;99.90;;;;;;5065550;28;20497;-67
2021/12/31 02:50:15;;;;;;;10.00;3.10;;;12.90;99.90;;;;;;5069082;28;20040;-67
2021/12/31 02:52:42;;;;;;;9.10;2.90;;;12.90;99.90;;;;;;5062485;28;20077;-67
2021/12/31 02:55:11;;;;;;;9.95;3.17;;;12.90;99.90;;;;;;5065760;28;20049;-67
2021/12/31 02:57:42;;;;;;;8.73;3.10;;;12.90;99.90;;;;;;5068408;28;20066;-67
2021/12/31 03:00:08;;;;;;;9.90;2.65;;;12.90;99.90;;;;;;5077095;28;20103;-67
2021/12/31 03:02:38;;;;;;;6.55;2.90;;;12.90;99.90;;;;;;5064860;28;20181;-67
2021/12/31 03:05:06;;;;;;;9.10;3.58;;;12.90;99.90;;;;;;5067931;28;20392;-67
2021/12/31 03:07:33;;;;;;;8.07;3.20;;;13.00;99.90;;;;;;5063876;28;20047;-67
2021/12/31 03:10:01;;;;;;;7.45;3.95;;;13.10;99.90;;;;;;5061472;28;20037;-67
2021/12/31 03:12:26;;;;;;;8.85;3.50;;;13.10;99.90;;;;;;5069383;28;20395;-67
2021/12/31 03:14:54;;;;;;;8.90;3.85;;;13.10;99.90;;;;;;5065062;28;20048;-67
2021/12/31 03:17:21;;;;;;;10.43;3.83;;;13.00;99.90;;;;;;5063988;28;20036;-67
2021/12/31 03:19:46;;;;;;;7.15;4.18;;;13.00;99.90;;;;;;5063132;28;20029;-67
2021/12/31 03:22:12;;;;;;;7.53;4.07;;;13.10;99.90;;;;;;5060065;28;20109;-67
2021/12/31 03:24:38;;;;;;;6.95;3.42;;;13.10;99.90;;;;;;5059428;28;20033;-67
2021/12/31 03:27:04;;;;;;;8.40;3.92;;;13.00;99.90;;;;;;5056682;28;20394;-67
2021/12/31 03:29:30;;;;;;;9.43;3.38;;;13.10;99.90;;;;;;5058833;28;20051;-67
2021/12/31 03:31:55;;;;;;;8.43;3.38;;;13.20;99.90;;;;;;5060006;28;20036;-67
2021/12/31 03:34:21;;;;;;;10.85;3.65;;;13.20;99.90;;;;;;5066726;28;20189;-67
2021/12/31 03:36:47;;;;;;;8.70;3.33;;;13.20;99.90;;;;;;5066197;28;20040;-67
2021/12/31 03:39:13;;;;;;;8.77;3.75;;;13.20;99.90;;;;;;5066151;28;20037;-67
2021/12/31 03:41:39;;;;;;;7.70;2.95;;;13.20;99.90;;;;;;5063940;28;20438;-67
2021/12/31 03:44:05;;;;;;;9.77;3.22;;;13.20;99.90;;;;;;5065539;28;20485;-67
2021/12/31 03:46:31;;;;;;;7.68;2.95;;;13.20;99.90;;;;;;5063424;28;20040;-67
2021/12/31 03:48:57;;;;;;;5.95;2.97;;;13.20;99.90;;;;;;5063976;28;20059;-67
2021/12/31 03:51:23;;;;;;;7.97;3.08;;;13.20;99.90;;;;;;5065741;28;21673;-67
2021/12/31 03:53:49;;;;;;;9.65;3.10;;;13.10;99.90;;;;;;5060650;28;20075;-67
2021/12/31 03:56:15;;;;;;;8.60;3.50;;;13.10;99.90;;;;;;5062118;28;20585;-67
2021/12/31 03:58:40;;;;;;;7.28;3.13;;;13.10;99.90;;;;;;5066158;28;20174;-67
2021/12/31 04:01:06;;;;;;;8.57;3.00;;;13.10;99.90;;;;;;5064207;28;20040;-67
2021/12/31 04:03:32;;;;;;;5.72;3.08;;;13.10;99.90;;;;;;5062452;28;20040;-67
2021/12/31 04:05:58;;;;;;;9.90;3.75;;;13.10;99.90;;;;;;5067782;28;20547;-67
2021/12/31 04:08:23;;;;;;;6.45;3.22;;;13.10;99.90;;;;;;5060247;28;20049;-67
2021/12/31 04:10:49;;;;;;;6.60;3.35;;;13.10;99.90;;;;;;5062434;28;20044;-67
2021/12/31 04:13:15;;;;;;;7.57;3.35;;;13.00;99.90;;;;;;5068608;28;20321;-67
2021/12/31 04:15:41;;;;;;;8.63;3.35;;;13.10;99.90;;;;;;5064673;28;20070;-67
2021/12/31 04:18:07;;;;;;;10.05;4.28;;;13.10;99.90;;;;;;5058807;28;20036;-67
2021/12/31 04:23:07;;;;;;;7.40;3.80;;;13.20;99.90;;;;;;5063026;28;20040;-67
2021/12/31 04:25:33;;;;;;;9.10;3.95;;;13.10;99.90;;;;;;5062601;28;20047;-67
2021/12/31 04:27:59;;;;;;;7.28;3.78;;;13.20;99.90;;;;;;5063381;28;20036;-67
2021/12/31 04:30:25;;;;;;;8.20;3.92;;;13.10;99.90;;;;;;5063184;28;20074;-66
2021/12/31 04:32:50;;;;;;;6.90;3.90;;;13.20;99.90;;;;;;5062734;28;20472;-66
2021/12/31 04:35:18;;;;;;;8.02;3.75;;;13.20;99.90;;;;;;5061723;28;20040;-66
2021/12/31 04:37:44;;;;;;;7.25;3.90;;;13.20;99.90;;;;;;5068852;28;20048;-67
2021/12/31 04:40:12;;;;;;;7.05;3.70;;;13.20;99.90;;;;;;5060440;28;20044;-67
2021/12/31 04:42:44;;;;;;;7.38;3.47;;;13.20;99.90;;;;;;5063839;28;20063;-67
2021/12/31 04:45:11;;;;;;;5.25;3.22;;;13.10;99.90;;;;;;5063443;28;20055;-67
2021/12/31 04:47:38;;;;;;;7.93;3.92;;;13.10;99.90;;;;;;5061359;28;20055;-67
2021/12/31 04:50:04;;;;;;;6.13;3.47;;;13.20;99.90;;;;;;5064895;28;20798;-67
2021/12/31 04:52:30;;;;;;;9.02;3.85;;;13.10;99.90;;;;;;5064017;28;20070;-67
2021/12/31 04:54:55;;;;;;;7.78;3.30;;;13.10;99.90;;;;;;5063729;28;20063;-67
2021/12/31 04:57:24;;;;;;;7.03;3.33;;;13.20;99.90;;;;;;5062914;28;20040;-67
2021/12/31 04:59:50;;;;;;;7.72;2.97;;;13.20;99.90;;;;;;5063582;28;20084;-67
2021/12/31 05:02:15;;;;;;;6.75;2.90;;;13.20;99.90;;;;;;5061962;28;20032;-67
2021/12/31 05:04:41;;;;;;;10.10;2.95;;;13.20;99.90;;;;;;5065003;28;20153;-67
2021/12/31 05:07:07;;;;;;;6.88;2.88;;;13.20;99.90;;;;;;5066864;28;20068;-67
2021/12/31 05:09:33;;;;;;;6.03;2.33;;;13.20;99.90;;;;;;5067342;28;20370;-67
2021/12/31 05:11:58;;;;;;;4.88;2.30;;;13.20;99.90;;;;;;5061172;28;20492;-67
2021/12/31 05:14:24;;;;;;;4.70;2.10;;;13.20;99.90;;;;;;5069417;28;20048;-67
2021/12/31 05:16:50;;;;;;;5.85;2.53;;;13.20;99.90;;;;;;5067213;28;20040;-67
2021/12/31 05:19:16;;;;;;;4.97;2.47;;;13.20;99.90;;;;;;5064790;28;20032;-67
2021/12/31 05:21:41;;;;;;;5.90;2.35;;;13.20;99.90;;;;;;5062361;28;20048;-67
2021/12/31 05:24:07;;;;;;;3.45;1.70;;;13.20;99.90;;;;;;5064131;28;20473;-67
2021/12/31 05:26:33;;;;;;;4.80;2.00;;;13.20;99.90;;;;;;5060736;28;20507;-67
2021/12/31 05:28:59;;;;;;;5.47;2.10;;;13.20;99.90;;;;;;5045276;28;20059;-67
2021/12/31 05:31:24;;;;;;;7.82;2.55;;;13.20;99.90;;;;;;5066803;28;20040;-67
2021/12/31 05:33:50;;;;;;;3.97;1.73;;;13.20;99.90;;;;;;5065432;28;20055;-67
2021/12/31 05:36:16;;;;;;;9.00;2.85;;;13.20;99.90;;;;;;5067211;28;20436;-67
2021/12/31 05:38:42;;;;;;;4.85;1.70;;;13.20;99.90;;;;;;5072464;28;20044;-67
2021/12/31 05:41:08;;;;;;;5.82;1.58;;;13.20;99.90;;;;;;5064770;28;20388;-67
2021/12/31 05:43:34;;;;;;;3.75;1.63;;;13.20;99.90;;;;;;5063340;28;20121;-67
2021/12/31 05:46:00;;;;;;;3.50;1.45;;;13.20;99.90;;;;;;5067997;28;20571;-67
2021/12/31 05:48:26;;;;;;;4.70;1.52;;;13.30;99.90;;;;;;5067042;28;20139;-67
2021/12/31 05:50:51;;;;;;;4.72;1.33;;;13.20;99.90;;;;;;5064177;28;20052;-67
2021/12/31 05:53:17;;;;;;;6.07;1.80;;;13.20;99.90;;;;;;5068012;28;20384;-67
2021/12/31 05:55:43;;;;;;;5.68;1.40;;;13.30;99.90;;;;;;5066336;28;20036;-67
2021/12/31 05:58:08;;;;;;;4.97;1.50;;;13.30;99.90;;;;;;5063154;28;20059;-67
2021/12/31 06:00:34;;;;;;;3.08;1.48;;;13.20;99.90;;;;;;5067386;28;20067;-67
2021/12/31 06:03:00;;;;;;;3.10;1.30;;;13.20;99.90;;;;;;5065823;28;20041;-67
2021/12/31 06:05:27;;;;;;;2.53;1.35;;;13.10;99.90;;;;;;5065892;28;20472;-67
2021/12/31 06:07:55;;;;;;;4.07;1.60;;;13.10;99.90;;;;;;5065729;28;20080;-67
2021/12/31 06:10:22;;;;;;;2.55;0.93;;;13.00;99.90;;;;;;5068079;28;20519;-67
2021/12/31 06:12:50;;;;;;;4.90;1.52;;;13.00;99.90;;;;;;5068336;28;20096;-68
2021/12/31 06:15:18;;;;;;;3.88;1.17;;;13.00;99.90;;;;;;5066026;28;20537;-68
2021/12/31 06:17:44;;;;;;;6.32;1.30;;;12.90;99.90;;;;;;5067822;28;20511;-67
2021/12/31 06:20:10;;;;;;;4.72;1.60;;;12.90;99.90;;;;;;5067447;28;20036;-67
2021/12/31 06:22:36;;;;;;;3.83;1.20;;;12.80;99.90;;;;;;5069938;28;20028;-67
2021/12/31 06:25:02;;;;;;;5.22;1.13;;;12.80;99.90;;;;;;5069765;28;20029;-67
2021/12/31 06:27:28;;;;;;;3.38;1.20;;;12.80;99.90;;;;;;5065250;28;20037;-67
2021/12/31 06:29:54;;;;;;;5.40;1.55;;;12.80;99.90;;;;;;5059714;28;20626;-67
2021/12/31 06:32:20;;;;;;;3.53;1.20;;;12.80;99.90;;;;;;5065824;28;20037;-67
2021/12/31 06:34:45;;;;;;;3.58;1.20;;;12.90;99.90;;;;;;5062930;28;20119;-67
2021/12/31 06:37:11;;;;;;;3.75;1.17;;;12.90;99.90;;;;;;5055337;28;20033;-67
2021/12/31 06:39:37;;;;;;;2.28;0.95;;;12.80;99.90;;;;;;5065632;28;20032;-67
2021/12/31 06:42:07;;;;;;;3.55;1.15;;;12.80;99.90;;;;;;5064048;28;20045;-67
2021/12/31 06:44:34;;;;;;;4.90;1.30;;;12.80;99.90;;;;;;5065913;28;20128;-67
2021/12/31 06:46:59;;;;;;;4.65;1.23;;;12.80;99.90;;;;;;5054475;28;20089;-67
2021/12/31 06:49:25;;;;;;;6.25;1.33;;;12.80;99.90;;;;;;5059420;28;20078;-67
2021/12/31 06:51:51;;;;;;;6.15;1.42;;;12.70;99.90;;;;;;5056604;28;20049;-67
2021/12/31 06:54:17;;;;;;;4.82;1.13;;;12.70;99.90;;;;;;5059413;28;20369;-67
2021/12/31 06:56:43;;;;;;;2.92;1.13;;;12.60;99.90;;;;;;5067053;28;20177;-67
2021/12/31 06:59:08;;;;;;;4.20;1.45;;;12.60;99.90;;;;;;5063500;28;20119;-67
2021/12/31 07:01:34;;;;;;;4.13;1.23;;;12.60;99.90;;;;;;5063140;28;20377;-67
2021/12/31 07:04:00;;;;;;;5.80;1.70;;;12.60;99.90;;;;;;5066304;28;20043;-67
2021/12/31 07:06:25;;;;;;;4.47;1.33;;;12.60;99.90;;;;;;5064986;28;20120;-67
2021/12/31 07:08:51;;;;;;;3.25;1.17;;;12.60;99.90;;;;;;5055610;28;20028;-67
2021/12/31 07:11:20;;;;;;;6.05;1.10;;;12.60;99.90;;;;;;5064470;28;20131;-67
2021/12/31 07:13:45;;;;;;;2.80;1.20;;;12.50;99.90;;;;;;5057393;28;20064;-67
2021/12/31 07:16:11;;;;;;;5.97;1.38;;;12.60;99.90;;;;;;5064066;28;20099;-67
2021/12/31 07:18:37;;;;;;;3.10;1.30;;;12.60;99.90;;;;;;5063509;28;20048;-68
2021/12/31 07:21:03;;;;;;;2.53;1.20;;;12.60;99.90;;;;;;5059539;28;20068;-67
2021/12/31 07:23:28;;;;;;;4.28;1.33;;;12.50;99.90;;;;;;5056407;28;20131;-67
2021/12/31 07:25:54;;;;;;;5.10;1.40;;;12.50;99.90;;;;;;5058651;28;20040;-68
2021/12/31 07:28:20;;;;;;;4.68;1.50;;;12.50;99.90;;;;;;5057589;28;20156;-68
2021/12/31 07:30:47;;;;;;;3.95;1.20;;;12.50;99.90;;;;;;5056939;28;20036;-67
2021/12/31 07:33:22;;;;;;;2.88;1.20;;;12.50;99.90;;;;;;5058694;28;20036;-66
2021/12/31 07:35:48;;;;;;;4.28;1.50;;;12.50;99.90;;;;;;5058725;28;20041;-66
2021/12/31 07:38:24;;;;;;;5.15;1.65;;;12.50;99.90;;;;;;5057288;28;20388;-67
2021/12/31 07:40:51;;;;;;;2.50;1.40;;;12.50;99.90;;;;;;5060047;28;20056;-67
2021/12/31 07:43:19;;;;;;;5.07;1.55;;;12.50;99.90;;;;;;5056714;28;20131;-67
2021/12/31 07:45:45;;;;;;;5.80;1.08;;;12.50;99.90;;;;;;5053121;28;20048;-68
2021/12/31 07:48:11;;;;;;;2.88;1.25;;;12.50;99.90;;;;;;5061825;28;20060;-68
2021/12/31 07:50:37;;;;;;;4.10;1.40;;;12.50;99.90;;;;;;5057620;28;20066;-68
2021/12/31 07:53:04;;;;;;;3.42;1.23;;;12.50;99.90;;;;;;5057586;28;20114;-68
2021/12/31 07:55:31;;;;;;;5.15;1.52;;;12.50;99.90;;;;;;5060249;28;20032;-67
2021/12/31 07:57:57;;;;;;;4.05;1.40;;;12.40;99.90;;;;;;5043644;28;20083;-67
2021/12/31 08:00:23;;;;;;;3.58;1.20;;;12.40;99.90;;;;;;5062929;28;20047;-67
2021/12/31 08:02:49;;;;;;;3.13;1.40;;;12.50;99.90;;;;;;5058435;28;20365;-67
2021/12/31 08:05:14;;;;;;;4.82;1.45;;;12.40;99.90;;;;;;5064832;28;20091;-67
2021/12/31 08:07:40;;;;;;;4.55;1.50;;;12.40;99.90;;;;;;5062124;28;20128;-67
2021/12/31 08:10:06;;;;;;;5.15;1.40;;;12.40;99.90;;;;;;5057827;28;22966;-67
2021/12/31 08:12:35;;;;;;;5.10;1.45;;;12.50;99.90;;;;;;5060063;28;20364;-67
2021/12/31 08:15:02;;;;;;;3.80;1.27;;;12.50;99.90;;;;;;5059504;28;20049;-67
2021/12/31 08:17:28;;;;;;;4.45;1.48;;;12.50;99.90;;;;;;5057892;28;20036;-67
2021/12/31 08:19:53;;;;;;;4.13;1.35;;;12.60;99.90;;;;;;5041780;28;20048;-67
2021/12/31 08:22:22;;;;;;;4.05;1.35;;;12.60;99.90;;;;;;5052836;28;20174;-67
2021/12/31 08:24:47;;;;;;;4.10;1.30;;;12.70;99.90;;;;;;5054847;28;20041;-67
2021/12/31 08:27:13;;;;;;;3.33;1.10;;;12.70;99.90;;;;;;5055123;28;20048;-67
2021/12/31 08:29:39;;;;;;;2.97;1.20;;;12.70;99.90;;;;;;5057271;28;20116;-67
2021/12/31 08:32:05;;;;;;;4.32;1.40;;;12.90;99.90;;;;;;5054380;28;20037;-67
2021/12/31 08:34:31;;;;;;;5.55;1.40;;;12.80;99.90;;;;;;5060205;28;20365;-67
2021/12/31 08:36:57;;;;;;;3.22;1.30;;;12.80;99.90;;;;;;5057400;28;20043;-67
2021/12/31 08:39:23;;;;;;;5.07;1.45;;;12.90;99.90;;;;;;5059622;28;20508;-67
2021/12/31 08:41:48;;;;;;;3.55;1.30;;;12.90;99.90;;;;;;5060572;28;20768;-67
2021/12/31 08:44:15;;;;;;;4.68;0.98;;;12.90;99.90;;;;;;5061926;28;20039;-68
2021/12/31 08:46:42;;;;;;;5.07;1.20;;;12.90;99.90;;;;;;5065024;28;20045;-67
2021/12/31 08:49:08;;;;;;;4.55;1.02;;;12.90;99.90;;;;;;5060723;28;20043;-67
2021/12/31 08:51:34;;;;;;;2.92;1.20;;;13.00;99.90;;;;;;5061041;28;20120;-67
2021/12/31 08:54:00;;;;;;;9.45;1.48;;;12.90;99.90;;;;;;5060954;28;20123;-66
2021/12/31 08:56:26;;;;;;;6.82;1.70;;;12.90;99.90;;;;;;5060961;28;20029;-66
2021/12/31 08:58:52;;;;;;;5.85;1.45;;;12.90;99.90;;;;;;5064972;28;20686;-67
2021/12/31 09:01:18;;;;;;;4.18;1.10;;;13.00;99.90;;;;;;5062668;28;20493;-67
2021/12/31 09:03:43;;;;;;;3.30;1.30;;;13.00;99.90;;;;;;5063715;28;20119;-67
2021/12/31 09:06:09;;;;;;;3.90;1.00;;;12.90;99.90;;;;;;5063757;28;20036;-67
2021/12/31 09:08:35;;;;;;;3.58;1.63;;;12.90;99.90;;;;;;5060640;28;20082;-67
2021/12/31 09:11:01;;;;;;;2.33;1.25;;;13.00;99.90;;;;;;5061832;28;20050;-68
2021/12/31 09:13:28;;;;;;;3.28;1.13;;;13.00;99.90;;;;;;5063342;28;20074;-67
2021/12/31 09:15:55;;;;;;;5.85;1.30;;;13.00;99.90;;;;;;5061650;28;20431;-68
2021/12/31 09:18:21;;;;;;;4.82;1.50;;;13.00;99.90;;;;;;5059446;28;20079;-68
2021/12/31 09:20:47;;;;;;;5.47;2.15;;;13.00;99.90;;;;;;5062234;28;20033;-67
2021/12/31 09:23:12;;;;;;;3.67;1.40;;;13.00;99.90;;;;;;5060173;28;20033;-67
2021/12/31 09:25:38;;;;;;;2.47;0.90;;;13.00;99.90;;;;;;5061241;28;20105;-67
2021/12/31 09:28:04;;;;;;;3.50;1.40;;;13.00;99.90;;;;;;5062163;28;20068;-67
2021/12/31 09:30:30;;;;;;;3.80;1.70;;;13.00;99.90;;;;;;5062333;28;20036;-67
2021/12/31 09:32:55;;;;;;;3.28;1.42;;;13.00;99.90;;;;;;5060480;28;20127;-67
2021/12/31 09:35:21;;;;;;;5.43;1.48;;;13.10;99.90;;;;;;5062542;28;20041;-67
2021/12/31 09:37:47;;;;;;;3.88;1.50;;;13.10;99.90;;;;;;5064545;28;20059;-67
2021/12/31 09:40:15;;;;;;;3.92;1.25;;;13.10;99.90;;;;;;5065488;28;20056;-67
2021/12/31 09:43:08;;;;;;;5.20;1.60;;;13.20;99.90;;;;;;5060389;28;20496;-67
2021/12/31 09:45:40;;;;;;;4.32;1.58;;;13.20;99.90;;;;;;5060797;28;20048;-67
2021/12/31 09:48:19;;;;;;;3.80;1.50;;;13.20;99.90;;;;;;5060726;28;20382;-67
2021/12/31 09:50:47;;;;;;;2.75;1.50;;;13.30;99.90;;;;;;5065474;28;20404;-67
2021/12/31 09:53:14;;;;;;;4.47;1.42;;;13.20;99.90;;;;;;5062583;28;20047;-67
2021/12/31 09:55:45;;;;;;;3.10;1.52;;;13.20;99.90;;;;;;5050802;28;20036;-67
2021/12/31 09:58:14;;;;;;;5.15;1.58;;;13.20;99.90;;;;;;5062970;28;20048;-67
2021/12/31 10:00:43;;;;;;;10.52;5.93;;;13.20;99.90;;;;;;5062931;28;20048;-68
2021/12/31 10:03:16;;;;;;;4.20;2.20;;;13.10;99.90;;;;;;5070310;28;20068;-68
2021/12/31 10:05:51;;;;;;;7.60;4.53;;;13.10;99.90;;;;;;5064514;28;20421;-68
2021/12/31 10:08:18;;;;;;;;;;;13.10;99.90;;;;;;5044476;28;20063;-68
2021/12/31 10:11:05;;;;;;;4.35;1.95;;;13.00;99.90;;;;;;5081914;28;19932;-67
2021/12/31 10:13:32;;;;;;;4.50;1.60;;;13.00;99.90;;;;;;5058594;28;20501;-67
2021/12/31 10:15:59;;;;;;;4.47;1.73;;;13.00;99.90;;;;;;5059364;28;20036;-67
2021/12/31 10:18:35;;;;;;;16.67;13.23;;;13.00;99.90;;;;;;5062034;28;20041;-67
2021/12/31 10:21:03;;;;;;;13.50;9.65;;;13.00;99.90;;;;;;5061660;28;20033;-67
2021/12/31 10:23:28;;;;;;;19.05;16.98;;;13.10;99.90;;;;;;5057623;28;20116;-67
2021/12/31 10:26:07;;;;;;;10.30;7.70;;;13.00;99.90;;;;;;5067385;28;20174;-67
2021/12/31 10:28:33;;;;;;;2.97;1.75;;;13.00;99.90;;;;;;5057281;28;20140;-67
2021/12/31 10:31:15;;;;;;;4.28;1.45;;;13.00;99.90;;;;;;5058164;28;20029;-67
2021/12/31 10:33:45;;;;;;;5.63;1.65;;;13.00;99.90;;;;;;5060387;28;20401;-67
2021/12/31 10:36:31;;;;;;;3.67;1.30;;;13.00;99.90;;;;;;5063141;28;20116;-68
2021/12/31 10:39:13;;;;;;;6.90;1.88;;;13.00;99.90;;;;;;5057634;28;20695;-67
2021/12/31 10:41:39;;;;;;;5.13;1.85;;;12.90;99.90;;;;;;5066866;28;20041;-67
2021/12/31 10:44:05;;;;;;;5.88;1.83;;;12.90;99.90;;;;;;5064856;28;20140;-67
2021/12/31 10:46:30;;;;;;;7.18;3.08;;;13.00;99.90;;;;;;5058814;28;20040;-68
2021/12/31 10:49:00;;;;;;;4.50;1.90;;;13.10;99.90;;;;;;5068023;28;20144;-68
2021/12/31 10:51:47;;;;;;;4.93;1.70;;;13.10;99.90;;;;;;5065730;28;20037;-68
2021/12/31 10:54:29;;;;;;;7.47;3.22;;;13.10;99.90;;;;;;5044068;28;20112;-68
2021/12/31 10:56:56;;;;;;;14.45;12.30;;;13.10;99.90;;;;;;5064336;28;20044;-68
2021/12/31 10:59:22;;;;;;;6.80;3.72;;;13.00;99.90;;;;;;5060291;28;20049;-67
2021/12/31 11:01:49;;;;;;;5.72;2.17;;;13.00;99.90;;;;;;5062635;28;20557;-67
2021/12/31 11:04:17;;;;;;;4.55;1.90;;;13.00;99.90;;;;;;5064502;28;20358;-67
2021/12/31 11:06:45;;;;;;;6.65;4.63;;;13.00;99.90;;;;;;5059504;28;20033;-67
2021/12/31 11:09:13;;;;;;;6.30;2.20;;;13.00;99.90;;;;;;5060640;28;20037;-67
2021/12/31 11:11:44;;;;;;;8.48;3.00;;;12.90;99.90;;;;;;5059896;28;20043;-67
2021/12/31 11:14:11;;;;;;;6.95;2.85;;;12.80;99.90;;;;;;5058049;28;20133;-66
2021/12/31 11:16:40;;;;;;;9.80;2.90;;;12.80;99.90;;;;;;5062790;28;20041;-66
2021/12/31 11:19:07;;;;;;;8.02;3.67;;;12.70;99.90;;;;;;5067329;28;20044;-68
2021/12/31 11:21:34;;;;;;;7.15;3.13;;;12.70;99.90;;;;;;5065844;28;20071;-66
2021/12/31 11:24:33;;;;;;;6.35;3.00;;;12.60;99.90;;;;;;5061264;28;20114;-66
2021/12/31 11:27:19;;;;;;;8.00;4.45;;;12.60;99.90;;;;;;5065614;28;20036;-65
2021/12/31 11:29:45;;;;;;;13.90;7.13;;;12.60;99.90;;;;;;5058103;28;20079;-66
2021/12/31 11:32:11;;;;;;;7.07;3.97;;;12.50;99.90;;;;;;5057576;28;20068;-66
2021/12/31 11:34:37;;;;;;;12.10;6.75;;;12.60;99.90;;;;;;5066266;28;20055;-66
2021/12/31 11:37:03;;;;;;;7.88;5.03;;;12.50;99.90;;;;;;5063988;28;20040;-66
2021/12/31 11:39:36;;;;;;;32.47;23.27;;;12.50;99.90;;;;;;5062344;28;20055;-66
2021/12/31 11:42:07;;;;;;;18.23;16.27;;;12.50;99.90;;;;;;5064015;28;20508;-66
2021/12/31 11:44:34;;;;;;;10.68;8.15;;;12.40;99.90;;;;;;5064064;28;20037;-67
2021/12/31 11:47:10;;;;;;;10.82;6.90;;;12.40;99.90;;;;;;5067432;28;20072;-67
2021/12/31 11:49:36;;;;;;;10.15;7.28;;;12.40;99.90;;;;;;5061913;28;20044;-67
2021/12/31 11:52:14;;;;;;;8.13;3.90;;;12.50;99.90;;;;;;5058994;28;20447;-67
2021/12/31 11:54:41;;;;;;;41.33;36.42;;;12.40;99.90;;;;;;5059998;28;20037;-67
2021/12/31 11:57:28;;;;;;;12.27;7.10;;;12.40;99.90;;;;;;5054434;28;20356;-67
2021/12/31 11:59:55;;;;;;;7.45;3.90;;;12.50;99.90;;;;;;5061521;28;20048;-67
2021/12/31 12:02:41;;;;;;;8.38;4.25;;;12.40;99.90;;;;;;5062010;28;20036;-67
2021/12/31 12:05:11;;;;;;;13.93;8.73;;;12.40;99.90;;;;;;5058985;28;20032;-67
2021/12/31 12:07:37;;;;;;;7.22;3.55;;;12.40;99.90;;;;;;5063957;28;20033;-67
2021/12/31 12:10:03;;;;;;;8.85;5.15;;;12.40;99.90;;;;;;5054739;28;20600;-67
2021/12/31 12:12:32;;;;;;;6.20;3.28;;;12.40;99.90;;;;;;5058830;28;20397;-67
2021/12/31 12:14:59;;;;;;;9.25;5.65;;;12.40;99.90;;;;;;5062141;28;20044;-68
2021/12/31 12:17:28;;;;;;;13.95;10.70;;;12.30;99.90;;;;;;5056313;28;20044;-67
2021/12/31 12:19:57;;;;;;;22.75;14.45;;;12.30;99.90;;;;;;5058975;28;20127;-67
2021/12/31 12:22:35;;;;;;;27.88;18.75;;;12.20;99.90;;;;;;5059144;28;20054;-66
2021/12/31 12:25:24;;;;;;;13.63;5.53;;;12.20;99.90;;;;;;5060901;28;20033;-65
2021/12/31 12:27:56;;;;;;;13.57;8.98;;;12.20;99.90;;;;;;5064428;28;20049;-65
2021/12/31 12:30:23;;;;;;;18.98;15.35;;;12.10;99.90;;;;;;5064334;28;20064;-65
2021/12/31 12:33:05;;;;;;;8.20;5.45;;;12.00;99.90;;;;;;5065622;28;20047;-65
2021/12/31 12:35:33;;;;;;;15.27;7.80;;;12.00;99.90;;;;;;5061933;28;20059;-64
2021/12/31 12:38:12;;;;;;;22.55;12.15;;;11.90;99.90;;;;;;5057748;28;20122;-65
2021/12/31 12:40:40;;;;;;;16.05;9.27;;;11.90;99.90;;;;;;5061797;28;21536;-65
2021/12/31 12:43:11;;;;;;;16.90;11.40;;;11.80;99.90;;;;;;5058700;28;20047;-65
2021/12/31 12:45:39;;;;;;;9.18;6.43;;;11.80;99.90;;;;;;5058112;28;20517;-66
2021/12/31 12:48:05;;;;;;;11.25;6.40;;;11.80;99.90;;;;;;5049183;28;20052;-65
2021/12/31 12:50:30;;;;;;;11.73;6.60;;;11.80;99.90;;;;;;5058181;28;20047;-65
2021/12/31 12:52:57;;;;;;;11.20;6.28;;;11.70;99.90;;;;;;5058727;28;20047;-66